Strona główna
METAR-TAF:

METAR-TAF

Lotnisko :

Lannion, Francja

Szerokość geograficzna: 48-45N, Długość geograficzna: 003-28W, wysokość: 89 m

Aktualna obserwacja pogody

Raport powstał 15 minut temu, godzina 09:30 UTC
Wiatr 10 kt od południe, zmienny między południowy wschód i południowo-południowy zachód
Temperatura 9°C
Wilgotność 93%
Ciśnienie 1012 hPa
Widzialność 10 km lub więcej
Mało chmury na wysokości 4800 ft
Zachmurzenie całkowite na wysokości 5600 ft

METAR: LFRO 260930Z AUTO 18010KT 140V200 9999 FEW048 OVC056 09/08 Q1012

czas: 10:45 (09:45 UTC)


TAF: brakujący

Obserwacja i prognoza pogody dla ponad 4000 lotnisk (raport METAR i TAF).

Dostępne stacje oznaczono żółtymi i czerwonymi punktami na mapie.

Najedź kursorem aby zobaczyć nazwę stacji.

Kliknij aby zobaczyć obserwacje i prognozy pogody.

Aby zmienić mapę: kliknij na zielony przycisk z czarnym krzyżykiem, aby powiększyć; na zielony przycisk z myślnikiem, aby pomniejszyć; na zielone strzałki, aby przejść do map sąsiednich.


METAR-TAF: